Time;durP1;ratioP1;P1;durP2;ratioP2;P2;SDS_P1;SDS_P2;PMS_P1;PMS_P2;Temp;Humidity;BMP_temperature;BMP_pressure;BME280_temperature;BME280_humidity;BME280_pressure;Samples;Min_cycle;Max_cycle;Signal;HPM_P1;HPM_P2
2023/03/30 00:02:02;;;;;;;2.43;1.30;;;12.90;99.90;;;;;;5044137;28;20504;-71
2023/03/30 00:04:33;;;;;;;3.17;1.70;;;12.90;99.90;;;;;;5033285;28;20430;-71
2023/03/30 00:06:59;;;;;;;3.20;1.23;;;12.90;99.90;;;;;;5034248;28;20473;-71
2023/03/30 00:09:31;;;;;;;1.73;1.37;;;12.90;99.90;;;;;;5034526;28;20495;-70
2023/03/30 00:12:02;;;;;;;2.80;1.60;;;13.00;99.90;;;;;;5039903;28;20425;-72
2023/03/30 00:14:28;;;;;;;8.80;1.80;;;13.00;99.90;;;;;;5038322;28;20891;-72
2023/03/30 00:16:54;;;;;;;4.50;2.00;;;13.00;99.90;;;;;;5034234;28;20440;-71
2023/03/30 00:19:20;;;;;;;2.90;1.63;;;13.10;99.90;;;;;;5034535;28;20494;-71
2023/03/30 00:21:46;;;;;;;1.87;1.77;;;13.10;99.90;;;;;;5036980;28;20456;-71
2023/03/30 00:24:12;;;;;;;2.20;1.63;;;13.10;99.90;;;;;;5037401;28;20833;-71
2023/03/30 00:26:37;;;;;;;2.50;1.53;;;13.10;99.90;;;;;;5044415;28;20465;-71
2023/03/30 00:29:03;;;;;;;4.73;1.60;;;13.00;99.90;;;;;;5039549;28;20248;-72
2023/03/30 00:31:28;;;;;;;5.93;1.70;;;13.10;99.90;;;;;;5038683;28;20171;-71
2023/03/30 00:33:54;;;;;;;7.17;1.83;;;13.10;99.90;;;;;;5039031;28;20194;-70
2023/03/30 00:36:21;;;;;;;3.00;1.43;;;13.10;99.90;;;;;;5037841;28;20176;-70
2023/03/30 00:38:47;;;;;;;1.83;1.73;;;13.10;99.90;;;;;;5033694;28;20163;-71
2023/03/30 00:41:13;;;;;;;9.53;2.03;;;13.00;99.90;;;;;;5033706;28;20959;-71
2023/03/30 00:44:02;;;;;;;1.60;1.30;;;13.00;99.90;;;;;;5043997;28;20434;-71
2023/03/30 00:46:32;;;;;;;2.30;1.43;;;13.10;99.90;;;;;;5044893;28;20450;-72
2023/03/30 00:49:03;;;;;;;4.07;1.90;;;13.10;99.90;;;;;;5034770;28;20795;-71
2023/03/30 00:51:33;;;;;;;1.80;1.40;;;13.20;99.90;;;;;;5040728;28;20827;-71
2023/03/30 00:54:06;;;;;;;1.67;1.57;;;13.20;99.90;;;;;;5033770;28;20422;-70
2023/03/30 00:56:32;;;;;;;2.53;1.50;;;13.10;99.90;;;;;;5033794;28;20411;-70
2023/03/30 00:58:59;;;;;;;2.60;1.20;;;13.10;99.90;;;;;;5036928;28;20910;-70
2023/03/30 01:01:27;;;;;;;1.93;1.20;;;13.20;99.90;;;;;;5072909;28;20793;-71
2023/03/30 01:03:56;;;;;;;2.97;1.80;;;13.30;99.90;;;;;;5054399;28;20486;-71
2023/03/30 01:06:23;;;;;;;1.70;1.40;;;13.50;99.90;;;;;;5053338;28;20446;-71
2023/03/30 01:08:53;;;;;;;5.47;1.50;;;13.50;99.90;;;;;;5053257;28;20448;-70
2023/03/30 01:11:20;;;;;;;2.70;2.00;;;13.60;99.90;;;;;;5065539;28;20412;-71
2023/03/30 01:13:49;;;;;;;1.40;1.30;;;13.70;99.90;;;;;;5055473;28;20449;-71
2023/03/30 01:16:21;;;;;;;4.83;1.40;;;13.80;99.90;;;;;;5053116;28;20412;-71
2023/03/30 01:18:46;;;;;;;1.80;1.43;;;13.80;99.90;;;;;;5058497;28;20417;-72
2023/03/30 01:21:50;;;;;;;3.63;1.73;;;13.90;99.90;;;;;;5052493;28;20925;-71
2023/03/30 01:24:34;;;;;;;2.77;1.83;;;13.90;99.90;;;;;;5044431;28;20295;-71
2023/03/30 01:27:15;;;;;;;6.10;1.77;;;14.00;99.90;;;;;;5052467;28;20949;-71
2023/03/30 01:30:17;;;;;;;1.97;1.47;;;14.10;99.90;;;;;;5053077;28;20398;-70
2023/03/30 01:33:07;;;;;;;2.70;1.20;;;14.20;99.90;;;;;;5055422;28;20940;-72
2023/03/30 01:35:54;;;;;;;5.60;1.30;;;14.30;99.90;;;;;;5056731;28;20420;-72
2023/03/30 01:38:19;;;;;;;2.33;1.73;;;14.40;99.90;;;;;;5052422;28;20932;-70
2023/03/30 01:41:10;;;;;;;5.70;1.97;;;14.40;99.90;;;;;;5051364;28;20414;-71
2023/03/30 01:43:50;;;;;;;5.07;2.03;;;14.50;99.90;;;;;;5052672;28;20198;-71
2023/03/30 01:46:29;;;;;;;4.10;1.70;;;14.50;99.90;;;;;;5052695;28;20532;-71
2023/03/30 01:49:14;;;;;;;3.27;1.27;;;14.60;99.90;;;;;;5056627;28;20398;-72
2023/03/30 01:51:45;;;;;;;4.70;1.93;;;14.70;99.90;;;;;;5056628;28;20397;-73
2023/03/30 01:54:21;;;;;;;1.93;1.50;;;14.80;99.90;;;;;;5053485;28;20788;-71
2023/03/30 01:56:55;;;;;;;1.90;1.67;;;14.80;99.90;;;;;;5054265;28;20437;-71
2023/03/30 01:59:28;;;;;;;1.67;1.37;;;14.90;99.90;;;;;;5052409;28;20820;-71
2023/03/30 02:02:01;;;;;;;1.40;1.10;;;14.90;99.90;;;;;;5052524;28;20432;-71
2023/03/30 02:04:30;;;;;;;3.73;2.23;;;15.00;99.90;;;;;;5052310;28;20452;-71
2023/03/30 02:07:00;;;;;;;2.03;1.67;;;15.00;99.90;;;;;;5052053;28;20547;-71
2023/03/30 02:09:28;;;;;;;5.43;2.33;;;15.00;99.90;;;;;;5053029;28;20417;-70
2023/03/30 02:11:55;;;;;;;4.60;1.90;;;15.00;99.90;;;;;;5054694;28;20415;-70
2023/03/30 02:14:28;;;;;;;1.93;1.60;;;15.00;99.90;;;;;;5061554;28;20457;-72
2023/03/30 02:17:00;;;;;;;1.80;1.17;;;15.10;99.90;;;;;;5051280;28;20410;-71
2023/03/30 02:19:26;;;;;;;5.80;1.47;;;15.20;99.90;;;;;;5051290;28;20416;-71
2023/03/30 02:21:52;;;;;;;2.20;1.30;;;15.10;99.90;;;;;;5052251;28;20470;-70
2023/03/30 02:24:24;;;;;;;1.77;1.40;;;15.20;99.90;;;;;;5052082;28;20437;-71
2023/03/30 02:26:51;;;;;;;5.27;1.73;;;15.20;99.90;;;;;;5051870;28;20445;-71
2023/03/30 02:29:18;;;;;;;1.70;1.13;;;15.30;99.90;;;;;;5050584;28;20496;-71
2023/03/30 02:31:46;;;;;;;3.83;1.57;;;15.30;99.90;;;;;;5051907;28;20500;-71
2023/03/30 02:34:28;;;;;;;5.30;1.70;;;15.30;99.90;;;;;;5050443;28;20432;-71
2023/03/30 02:37:16;;;;;;;3.13;1.83;;;15.40;99.90;;;;;;5051115;28;20435;-70
2023/03/30 02:39:57;;;;;;;2.53;1.40;;;15.40;99.90;;;;;;5050678;28;20754;-70
2023/03/30 02:42:47;;;;;;;3.67;1.80;;;15.30;99.90;;;;;;5051835;28;20405;-71
2023/03/30 02:45:42;;;;;;;3.10;1.73;;;15.20;99.90;;;;;;5051887;28;20420;-70
2023/03/30 02:48:22;;;;;;;4.80;2.30;;;15.20;99.90;;;;;;5051502;28;20463;-71
2023/03/30 02:51:00;;;;;;;2.30;1.47;;;15.10;99.90;;;;;;5051764;28;20397;-70
2023/03/30 02:53:41;;;;;;;2.00;1.67;;;15.10;99.90;;;;;;5051877;28;20571;-70
2023/03/30 02:56:23;;;;;;;5.93;1.77;;;14.90;99.90;;;;;;5048744;28;21030;-71
2023/03/30 02:59:01;;;;;;;11.20;1.83;;;14.80;99.90;;;;;;5031664;28;20480;-70
2023/03/30 03:01:55;;;;;;;4.00;1.57;;;14.80;99.90;;;;;;5031895;28;20455;-70
2023/03/30 03:04:22;;;;;;;3.40;1.90;;;14.70;99.90;;;;;;5031692;28;20907;-70
2023/03/30 03:06:51;;;;;;;6.40;1.40;;;14.60;99.90;;;;;;5030340;28;20464;-71
2023/03/30 03:09:18;;;;;;;3.30;1.50;;;14.50;99.90;;;;;;5031771;28;20406;-71
2023/03/30 03:11:44;;;;;;;5.87;2.40;;;14.50;99.90;;;;;;5031677;28;20399;-70
2023/03/30 03:14:10;;;;;;;3.37;2.13;;;14.40;99.90;;;;;;5031478;28;20446;-72
2023/03/30 03:16:36;;;;;;;4.50;1.33;;;14.40;99.90;;;;;;5031508;28;20410;-71
2023/03/30 03:19:02;;;;;;;3.23;1.50;;;14.50;99.90;;;;;;5031414;28;20417;-70
2023/03/30 03:21:28;;;;;;;2.43;1.43;;;14.50;99.90;;;;;;5031716;28;20164;-70
2023/03/30 03:23:53;;;;;;;4.37;1.90;;;14.60;99.90;;;;;;5046379;28;20425;-70
2023/03/30 03:26:19;;;;;;;1.83;1.73;;;14.70;99.90;;;;;;5065717;28;20194;-70
2023/03/30 03:28:45;;;;;;;1.77;1.67;;;14.70;99.90;;;;;;5071160;28;20171;-71
2023/03/30 03:31:12;;;;;;;2.27;1.60;;;14.60;99.90;;;;;;5071347;28;20166;-70
2023/03/30 03:33:37;;;;;;;2.27;1.53;;;14.50;99.90;;;;;;5071449;28;20270;-70
2023/03/30 03:36:04;;;;;;;3.00;1.63;;;14.40;99.90;;;;;;5071405;28;20436;-71
2023/03/30 03:38:30;;;;;;;3.33;1.70;;;14.30;99.90;;;;;;5071163;28;20224;-71
2023/03/30 03:40:57;;;;;;;1.67;1.10;;;14.20;99.90;;;;;;5070162;28;20770;-70
2023/03/30 03:43:23;;;;;;;1.30;1.20;;;14.10;99.90;;;;;;5071264;28;20420;-70
2023/03/30 03:45:50;;;;;;;3.20;1.90;;;14.10;99.90;;;;;;5071152;28;20448;-71
2023/03/30 03:48:17;;;;;;;3.07;2.07;;;14.00;99.90;;;;;;5070158;28;20190;-71
2023/03/30 03:50:44;;;;;;;2.30;1.60;;;14.00;99.90;;;;;;5074834;28;20798;-70
2023/03/30 03:53:11;;;;;;;4.97;1.90;;;14.00;99.90;;;;;;5074535;28;20416;-70
2023/03/30 03:55:37;;;;;;;4.00;1.27;;;13.90;99.90;;;;;;5074793;28;20757;-70
2023/03/30 03:58:04;;;;;;;3.87;1.37;;;13.90;99.90;;;;;;5055495;28;20401;-70
2023/03/30 04:00:30;;;;;;;3.57;1.53;;;13.90;99.90;;;;;;5054749;28;20159;-71
2023/03/30 04:02:57;;;;;;;3.50;1.40;;;13.90;99.90;;;;;;5054641;28;20517;-71
2023/03/30 04:05:23;;;;;;;3.53;2.10;;;14.00;99.90;;;;;;5053443;28;20484;-70
2023/03/30 04:07:52;;;;;;;2.73;2.20;;;14.00;99.90;;;;;;5054303;28;20453;-70
2023/03/30 04:10:18;;;;;;;2.43;1.93;;;14.00;99.90;;;;;;5054693;28;20535;-71
2023/03/30 04:12:43;;;;;;;2.97;1.80;;;14.10;99.90;;;;;;5054420;28;20499;-71
2023/03/30 04:15:09;;;;;;;2.80;1.60;;;14.20;99.90;;;;;;5054510;28;20894;-70
2023/03/30 04:17:36;;;;;;;2.73;1.60;;;14.20;99.90;;;;;;5054095;28;20173;-70
2023/03/30 04:20:10;;;;;;;2.30;1.20;;;14.20;99.90;;;;;;5054433;28;20167;-71
2023/03/30 04:22:40;;;;;;;1.63;1.17;;;14.20;99.90;;;;;;5054401;28;20759;-71
2023/03/30 04:25:07;;;;;;;2.30;1.63;;;14.20;99.90;;;;;;5054378;28;20406;-73
2023/03/30 04:27:33;;;;;;;3.87;1.83;;;14.20;99.90;;;;;;5052596;28;20445;-70
2023/03/30 04:30:00;;;;;;;2.10;1.30;;;14.20;99.90;;;;;;5054336;28;20424;-71
2023/03/30 04:32:26;;;;;;;6.57;1.63;;;14.10;99.90;;;;;;5061036;28;20567;-71
2023/03/30 04:34:55;;;;;;;3.10;2.10;;;14.10;99.90;;;;;;5059363;28;20448;-71
2023/03/30 04:37:28;;;;;;;3.70;1.60;;;14.10;99.90;;;;;;5053856;28;20589;-71
2023/03/30 04:40:01;;;;;;;4.67;1.63;;;14.20;99.90;;;;;;5054073;28;20397;-72
2023/03/30 04:42:33;;;;;;;2.40;1.80;;;14.10;99.90;;;;;;5053964;28;20767;-71
2023/03/30 04:44:59;;;;;;;3.80;2.00;;;14.10;99.90;;;;;;5053991;28;20451;-70
2023/03/30 04:47:26;;;;;;;5.17;2.00;;;14.20;99.90;;;;;;5053467;28;20488;-71
2023/03/30 04:49:52;;;;;;;2.60;1.80;;;14.10;99.90;;;;;;5053909;28;20399;-71
2023/03/30 04:52:18;;;;;;;6.97;1.70;;;14.20;99.90;;;;;;5052689;28;20459;-71
2023/03/30 04:54:44;;;;;;;2.23;1.77;;;14.20;99.90;;;;;;5053651;28;20600;-70
2023/03/30 04:57:11;;;;;;;2.37;1.90;;;14.30;99.90;;;;;;5041693;28;20434;-71
2023/03/30 04:59:36;;;;;;;7.03;1.67;;;14.20;99.90;;;;;;5033735;28;20407;-71
2023/03/30 05:02:02;;;;;;;5.77;1.93;;;14.30;99.90;;;;;;5033208;28;20402;-70
2023/03/30 05:04:28;;;;;;;3.30;2.00;;;14.20;99.90;;;;;;5033566;28;20206;-70
2023/03/30 05:06:54;;;;;;;4.40;2.70;;;14.30;99.90;;;;;;5033244;28;20442;-70
2023/03/30 05:09:20;;;;;;;2.80;1.90;;;14.30;99.90;;;;;;5033518;28;20213;-71
2023/03/30 05:11:46;;;;;;;5.47;3.00;;;14.30;99.90;;;;;;5033705;28;20160;-71
2023/03/30 05:14:11;;;;;;;4.27;3.50;;;14.30;99.90;;;;;;5033305;28;20449;-71
2023/03/30 05:16:37;;;;;;;2.23;1.83;;;14.20;99.90;;;;;;5033416;28;20163;-71
2023/03/30 05:19:02;;;;;;;7.20;2.10;;;14.30;99.90;;;;;;5033116;28;20182;-71
2023/03/30 05:21:30;;;;;;;3.07;1.93;;;14.30;99.90;;;;;;5033337;28;20611;-71
2023/03/30 05:23:56;;;;;;;2.80;2.03;;;14.40;99.90;;;;;;5033102;28;20703;-72
2023/03/30 05:26:22;;;;;;;4.97;1.90;;;14.40;99.90;;;;;;5033140;28;20458;-70
2023/03/30 05:28:48;;;;;;;3.07;2.00;;;14.40;99.90;;;;;;5032855;28;20191;-71
2023/03/30 05:31:14;;;;;;;5.37;2.33;;;14.40;99.90;;;;;;5032961;28;20454;-71
2023/03/30 05:33:39;;;;;;;10.20;2.50;;;14.40;99.90;;;;;;5033091;28;20566;-71
2023/03/30 05:36:05;;;;;;;3.43;2.23;;;14.40;99.90;;;;;;5033103;28;20167;-70
2023/03/30 05:38:31;;;;;;;3.40;2.10;;;14.40;99.90;;;;;;5052398;28;20189;-71
2023/03/30 05:40:57;;;;;;;4.93;2.07;;;14.40;99.90;;;;;;5057313;28;20640;-71
2023/03/30 05:43:22;;;;;;;3.20;2.03;;;14.30;99.90;;;;;;5052750;28;20193;-71
2023/03/30 05:45:48;;;;;;;8.40;2.13;;;14.40;99.90;;;;;;5052672;28;20175;-71
2023/03/30 05:48:14;;;;;;;3.87;1.90;;;14.40;99.90;;;;;;5052515;28;20167;-71
2023/03/30 05:50:41;;;;;;;3.57;1.80;;;14.30;99.90;;;;;;5051373;28;20953;-72
2023/03/30 05:53:07;;;;;;;2.07;1.80;;;14.30;99.90;;;;;;5052543;28;20428;-71
2023/03/30 05:55:33;;;;;;;2.93;1.70;;;14.20;99.90;;;;;;5052705;28;20409;-71
2023/03/30 05:57:58;;;;;;;8.97;1.70;;;14.30;99.90;;;;;;5032588;28;20782;-70
2023/03/30 06:00:24;;;;;;;7.90;1.90;;;14.30;99.90;;;;;;5032577;28;20163;-71
2023/03/30 06:02:50;;;;;;;3.93;1.90;;;14.40;99.90;;;;;;5031307;28;20191;-70
2023/03/30 06:05:16;;;;;;;2.27;1.90;;;14.50;99.90;;;;;;5032435;28;20545;-71
2023/03/30 06:07:44;;;;;;;9.63;1.90;;;14.60;99.90;;;;;;5032249;28;20906;-70
2023/03/30 06:10:11;;;;;;;3.30;1.93;;;14.70;99.90;;;;;;5032474;28;20438;-70
2023/03/30 06:12:38;;;;;;;3.83;1.70;;;14.80;99.90;;;;;;5030226;28;20410;-71
2023/03/30 06:15:04;;;;;;;3.10;1.90;;;14.90;99.90;;;;;;5032220;28;20422;-71
2023/03/30 06:17:30;;;;;;;7.87;1.63;;;15.00;99.90;;;;;;5032022;28;20473;-71
2023/03/30 06:19:56;;;;;;;2.13;1.83;;;15.00;99.90;;;;;;5032295;28;20414;-71
2023/03/30 06:22:22;;;;;;;4.00;1.70;;;15.00;99.90;;;;;;5030990;28;20191;-71
2023/03/30 06:24:47;;;;;;;4.20;1.57;;;15.10;99.90;;;;;;5032293;28;20910;-71
2023/03/30 06:27:13;;;;;;;3.77;2.57;;;15.20;99.90;;;;;;5031829;28;20810;-73
2023/03/30 06:29:38;;;;;;;4.07;1.60;;;15.20;99.90;;;;;;5032209;28;20171;-71
2023/03/30 06:32:04;;;;;;;3.53;1.73;;;15.10;99.90;;;;;;5032170;28;20172;-70
2023/03/30 06:34:30;;;;;;;3.83;1.90;;;15.20;99.90;;;;;;5030594;28;20249;-71
2023/03/30 06:36:56;;;;;;;1.97;1.50;;;15.30;99.90;;;;;;5031890;28;20171;-71
2023/03/30 06:39:22;;;;;;;2.23;2.03;;;15.40;99.90;;;;;;5030767;28;20413;-71
2023/03/30 06:41:48;;;;;;;3.77;1.60;;;15.40;99.90;;;;;;5032042;28;20167;-71
2023/03/30 06:44:14;;;;;;;2.90;2.27;;;15.40;99.90;;;;;;5045541;28;20198;-71
2023/03/30 06:46:40;;;;;;;5.83;1.87;;;15.50;99.90;;;;;;5064878;28;20285;-72
2023/03/30 06:49:06;;;;;;;3.07;1.83;;;15.50;99.90;;;;;;5071614;28;20400;-72
2023/03/30 06:51:34;;;;;;;6.23;1.90;;;15.50;99.90;;;;;;5071884;28;20396;-70
2023/03/30 06:54:00;;;;;;;3.63;1.40;;;15.50;99.90;;;;;;5071910;28;20178;-70
2023/03/30 06:56:26;;;;;;;1.70;1.43;;;15.60;99.90;;;;;;5064823;28;20509;-71
2023/03/30 06:58:51;;;;;;;2.87;1.60;;;15.50;99.90;;;;;;5051476;28;20420;-71
2023/03/30 07:01:17;;;;;;;2.03;1.20;;;15.70;99.90;;;;;;5051775;28;20398;-71
2023/03/30 07:03:43;;;;;;;2.70;1.83;;;15.80;99.90;;;;;;5051571;28;20622;-71
2023/03/30 07:06:10;;;;;;;2.17;1.30;;;15.90;99.90;;;;;;5051653;28;20444;-71
2023/03/30 07:08:36;;;;;;;4.53;1.90;;;16.00;99.90;;;;;;5051427;28;20440;-70
2023/03/30 07:11:05;;;;;;;3.30;1.60;;;16.00;99.90;;;;;;5051744;28;20437;-71
2023/03/30 07:13:32;;;;;;;1.93;1.40;;;16.00;99.90;;;;;;5051419;28;20840;-70
2023/03/30 07:15:57;;;;;;;2.13;1.30;;;16.00;99.90;;;;;;5051701;28;20398;-71
2023/03/30 07:18:23;;;;;;;3.47;1.70;;;16.10;99.90;;;;;;5050102;28;20405;-71
2023/03/30 07:20:50;;;;;;;2.27;1.60;;;16.20;99.90;;;;;;5051721;28;20262;-71
2023/03/30 07:23:15;;;;;;;3.03;1.67;;;16.40;99.90;;;;;;5051995;28;20471;-70
2023/03/30 07:25:42;;;;;;;1.33;1.23;;;16.50;99.90;;;;;;5055383;28;20444;-71
2023/03/30 07:28:08;;;;;;;1.77;1.43;;;16.50;99.90;;;;;;5053811;28;20163;-71
2023/03/30 07:30:34;;;;;;;4.20;1.93;;;16.50;99.90;;;;;;5055333;28;20420;-71
2023/03/30 07:33:00;;;;;;;2.23;1.77;;;16.70;99.90;;;;;;5055181;28;20187;-71
2023/03/30 07:35:26;;;;;;;2.60;1.57;;;16.80;99.90;;;;;;5055534;28;20538;-71
2023/03/30 07:37:52;;;;;;;1.70;1.17;;;16.70;99.90;;;;;;5054956;28;20257;-71
2023/03/30 07:40:18;;;;;;;5.27;1.57;;;16.70;99.90;;;;;;5054968;28;20167;-72
2023/03/30 07:42:44;;;;;;;4.63;1.40;;;16.70;99.90;;;;;;5053475;28;20203;-70
2023/03/30 07:45:10;;;;;;;1.60;1.27;;;16.80;99.90;;;;;;5055054;28;20758;-71
2023/03/30 07:47:36;;;;;;;1.40;1.30;;;16.80;99.90;;;;;;5054619;28;20187;-71
2023/03/30 07:50:02;;;;;;;3.13;1.60;;;16.90;99.90;;;;;;5055022;28;20397;-71
2023/03/30 07:52:28;;;;;;;3.23;1.50;;;17.50;99.90;;;;;;5054788;28;20398;-71
2023/03/30 07:54:55;;;;;;;3.37;1.30;;;18.90;99.90;;;;;;5054943;28;20466;-72
2023/03/30 07:57:21;;;;;;;8.40;1.93;;;19.40;99.90;;;;;;5054560;28;20179;-71
2023/03/30 07:59:46;;;;;;;2.10;1.27;;;19.20;99.90;;;;;;5054837;28;20462;-72
2023/03/30 08:02:13;;;;;;;2.40;1.27;;;18.70;99.90;;;;;;5055109;28;20405;-69
2023/03/30 08:04:40;;;;;;;4.43;2.00;;;18.70;99.90;;;;;;5054647;28;20187;-69
2023/03/30 08:07:06;;;;;;;9.03;1.60;;;18.40;99.90;;;;;;5054377;28;20967;-71
2023/03/30 08:09:32;;;;;;;8.30;2.60;;;18.40;99.90;;;;;;5054657;28;20408;-71
2023/03/30 08:11:58;;;;;;;2.07;1.30;;;18.20;99.90;;;;;;5054602;28;20400;-73
2023/03/30 08:14:26;;;;;;;2.27;1.40;;;18.10;99.90;;;;;;5053098;28;20449;-70
2023/03/30 08:16:54;;;;;;;10.47;1.83;;;17.90;99.90;;;;;;5054261;28;20170;-71
2023/03/30 08:19:21;;;;;;;5.90;1.70;;;17.70;99.90;;;;;;5054393;28;20914;-72
2023/03/30 08:21:47;;;;;;;2.10;1.60;;;17.30;99.90;;;;;;5054339;28;20401;-69
2023/03/30 08:24:12;;;;;;;9.67;1.63;;;17.40;99.90;;;;;;5054265;28;20482;-70
2023/03/30 08:26:38;;;;;;;3.43;1.53;;;17.40;99.90;;;;;;5054692;28;20178;-71
2023/03/30 08:29:03;;;;;;;3.80;1.30;;;17.10;99.90;;;;;;5055956;28;20190;-72
2023/03/30 08:31:33;;;;;;;6.30;1.77;;;17.00;99.90;;;;;;5055919;28;20163;-70
2023/03/30 08:33:58;;;;;;;21.77;3.47;;;16.60;99.90;;;;;;5054044;28;20590;-72
2023/03/30 08:36:24;;;;;;;2.20;1.13;;;16.40;99.90;;;;;;5053123;28;20459;-70
2023/03/30 08:38:52;;;;;;;5.40;1.20;;;16.40;99.90;;;;;;5053831;28;20198;-70
2023/03/30 08:41:43;;;;;;;2.40;1.33;;;16.50;99.90;;;;;;5054044;28;20488;-70
2023/03/30 08:44:24;;;;;;;4.00;1.73;;;16.60;99.90;;;;;;5055529;28;20428;-70
2023/03/30 08:46:50;;;;;;;5.53;1.20;;;16.60;99.90;;;;;;5055291;28;20453;-69
2023/03/30 08:49:19;;;;;;;12.07;2.07;;;16.60;99.90;;;;;;5054649;28;20409;-71
2023/03/30 08:51:46;;;;;;;2.47;1.23;;;16.70;99.90;;;;;;5052546;28;20485;-70
2023/03/30 08:54:16;;;;;;;5.90;1.30;;;16.70;99.90;;;;;;5053650;28;20923;-71
2023/03/30 08:56:47;;;;;;;2.23;1.03;;;16.60;99.90;;;;;;5053655;28;20410;-71
2023/03/30 08:59:48;;;;;;;17.37;2.50;;;16.60;99.90;;;;;;5053764;28;20405;-70
2023/03/30 09:02:30;;;;;;;7.43;1.53;;;16.60;99.90;;;;;;5053767;28;20397;-71
2023/03/30 09:05:11;;;;;;;4.30;1.20;;;16.80;99.90;;;;;;5056685;28;20405;-71
2023/03/30 09:07:43;;;;;;;4.23;2.70;;;18.10;99.90;;;;;;5054735;28;20484;-71
2023/03/30 09:10:13;;;;;;;3.20;1.37;;;19.00;99.90;;;;;;5052374;28;20413;-72
2023/03/30 09:12:50;;;;;;;4.20;1.57;;;18.90;99.90;;;;;;5053591;28;20401;-71
2023/03/30 09:15:35;;;;;;;3.40;1.50;;;18.80;99.90;;;;;;5052086;28;20956;-71
2023/03/30 09:18:05;;;;;;;2.37;1.20;;;18.60;99.90;;;;;;5053231;28;20458;-72
2023/03/30 09:20:34;;;;;;;2.23;1.23;;;18.10;99.90;;;;;;5056132;28;20417;-72
2023/03/30 09:23:01;;;;;;;1.10;0.70;;;18.00;99.90;;;;;;5051862;28;20457;-72
2023/03/30 09:25:52;;;;;;;2.50;1.43;;;17.90;99.90;;;;;;5053450;28;20500;-71
2023/03/30 09:28:21;;;;;;;3.87;0.90;;;17.70;99.90;;;;;;5052495;28;20413;-70
2023/03/30 09:31:15;;;;;;;1.43;1.00;;;17.00;99.90;;;;;;5053084;28;20914;-72
2023/03/30 09:33:48;;;;;;;1.50;1.10;;;16.20;99.90;;;;;;5052976;28;20429;-71
2023/03/30 09:36:24;;;;;;;1.30;0.80;;;15.70;99.90;;;;;;5053031;28;20400;-71
2023/03/30 09:38:50;;;;;;;5.83;1.27;;;15.00;99.90;;;;;;5052698;28;20834;-71
2023/03/30 09:41:37;;;;;;;2.90;1.20;;;14.30;99.90;;;;;;5052917;28;20459;-72
2023/03/30 09:44:09;;;;;;;5.77;1.20;;;13.60;99.90;;;;;;5053165;28;20445;-71
2023/03/30 09:46:36;;;;;;;2.90;1.03;;;12.80;99.90;;;;;;5053029;28;20479;-70
2023/03/30 09:49:13;;;;;;;6.40;1.10;;;12.40;99.90;;;;;;5052580;28;20839;-72
2023/03/30 09:51:54;;;;;;;2.20;1.20;;;12.10;99.90;;;;;;5052913;28;20437;-71
2023/03/30 09:54:21;;;;;;;1.47;0.90;;;11.80;99.90;;;;;;5053014;28;20463;-72
2023/03/30 09:56:50;;;;;;;5.23;1.20;;;11.50;99.90;;;;;;5052695;28;20401;-71
2023/03/30 09:59:27;;;;;;;3.20;1.30;;;11.20;99.90;;;;;;5053134;28;20887;-71
2023/03/30 10:02:16;;;;;;;2.73;1.10;;;11.20;99.90;;;;;;5052602;28;20439;-72
2023/03/30 10:04:57;;;;;;;7.60;1.47;;;11.40;99.90;;;;;;5052194;28;20494;-71
2023/03/30 10:07:36;;;;;;;1.77;0.70;;;11.60;99.90;;;;;;5052365;28;20460;-71
2023/03/30 10:10:19;;;;;;;4.83;1.00;;;11.50;99.90;;;;;;5052679;28;20397;-72
2023/03/30 10:12:48;;;;;;;1.93;0.70;;;11.60;99.90;;;;;;5052558;28;20489;-72
2023/03/30 10:15:19;;;;;;;1.30;0.60;;;11.90;99.90;;;;;;5052338;28;20407;-71
2023/03/30 10:17:46;;;;;;;1.87;1.00;;;12.40;99.90;;;;;;5052036;28;20460;-70
2023/03/30 10:20:14;;;;;;;1.27;0.80;;;13.60;99.90;;;;;;5052041;28;20898;-70
2023/03/30 10:22:50;;;;;;;2.00;0.83;;;16.10;99.90;;;;;;5052102;28;20417;-70
2023/03/30 10:25:22;;;;;;;4.10;1.07;;;16.80;99.90;;;;;;5052138;28;20779;-70
2023/03/30 10:27:49;;;;;;;1.63;0.90;;;16.30;99.90;;;;;;5051740;28;20544;-70
2023/03/30 10:30:20;;;;;;;1.70;1.00;;;15.90;99.90;;;;;;5052426;28;20875;-70
2023/03/30 10:32:46;;;;;;;4.73;0.83;;;16.20;99.90;;;;;;5052124;28;20930;-71
2023/03/30 10:35:19;;;;;;;2.57;0.90;;;16.60;99.90;;;;;;5052058;28;20409;-70
2023/03/30 10:37:46;;;;;;;1.97;0.80;;;16.70;99.90;;;;;;5051619;28;20401;-70
2023/03/30 10:40:36;;;;;;;1.83;0.87;;;17.10;99.90;;;;;;5051938;28;20497;-70
2023/03/30 10:43:03;;;;;;;1.30;0.70;;;17.80;99.90;;;;;;5051775;28;20429;-70
2023/03/30 10:45:41;;;;;;;1.30;0.90;;;18.50;99.90;;;;;;5051979;28;20409;-70
2023/03/30 10:48:44;;;;;;;0.90;0.60;;;19.20;99.90;;;;;;5051642;28;20851;-71
2023/03/30 10:51:34;;;;;;;1.47;1.10;;;20.10;99.90;;;;;;5051594;28;20398;-72
2023/03/30 10:54:11;;;;;;;2.60;0.80;;;20.90;99.90;;;;;;5051680;28;20440;-71
2023/03/30 10:56:50;;;;;;;1.77;0.90;;;21.40;99.90;;;;;;5052109;28;20496;-71
2023/03/30 10:59:38;;;;;;;2.50;1.13;;;24.10;99.90;;;;;;5054241;28;20400;-72
2023/03/30 11:02:22;;;;;;;1.93;0.87;;;27.00;82.60;;;;;;5056021;28;20406;-72
2023/03/30 11:04:55;;;;;;;1.03;0.73;;;28.70;67.90;;;;;;5055900;28;20505;-71
2023/03/30 11:07:32;;;;;;;0.90;0.60;;;30.30;60.50;;;;;;5055453;28;20448;-72
2023/03/30 11:10:04;;;;;;;1.93;1.00;;;31.70;54.60;;;;;;5055766;28;20396;-71
2023/03/30 11:12:38;;;;;;;2.50;1.00;;;31.20;48.60;;;;;;5056128;28;20401;-72
2023/03/30 11:15:13;;;;;;;1.73;1.10;;;29.80;48.80;;;;;;5055582;28;20433;-71
2023/03/30 11:17:49;;;;;;;2.17;0.83;;;28.60;50.90;;;;;;5055623;28;20441;-71
2023/03/30 11:20:26;;;;;;;2.50;1.20;;;25.60;51.50;;;;;;5057312;28;20393;-72
2023/03/30 11:22:57;;;;;;;4.50;1.37;;;23.60;55.60;;;;;;5055522;28;20467;-71
2023/03/30 11:25:29;;;;;;;6.10;1.80;;;21.60;59.40;;;;;;5055482;28;20414;-71
2023/03/30 11:28:10;;;;;;;3.33;1.30;;;21.10;68.30;;;;;;5055367;28;20518;-71
2023/03/30 11:30:37;;;;;;;2.40;1.10;;;21.60;75.00;;;;;;5055408;28;20454;-71
2023/03/30 11:33:31;;;;;;;4.50;1.40;;;23.90;71.10;;;;;;5055238;28;20424;-72
2023/03/30 11:36:05;;;;;;;3.97;1.47;;;25.50;65.70;;;;;;5054739;28;20421;-72
2023/03/30 11:38:46;;;;;;;6.90;2.57;;;27.70;59.30;;;;;;5056625;28;20920;-72
2023/03/30 11:41:15;;;;;;;8.10;1.47;;;29.10;55.00;;;;;;5054111;28;20809;-71
2023/03/30 11:43:41;;;;;;;2.43;1.33;;;30.40;52.00;;;;;;5055134;28;20417;-71
2023/03/30 11:46:26;;;;;;;2.80;1.50;;;30.50;49.00;;;;;;5055036;28;20540;-71
2023/03/30 11:49:10;;;;;;;3.00;1.30;;;32.50;49.30;;;;;;5053977;28;20945;-73
2023/03/30 11:51:51;;;;;;;2.93;1.23;;;30.80;45.80;;;;;;5055227;28;20421;-72
2023/03/30 11:54:52;;;;;;;2.87;1.60;;;31.10;48.80;;;;;;5055508;28;20460;-73
2023/03/30 11:57:23;;;;;;;3.97;1.50;;;32.20;45.90;;;;;;5033850;28;20492;-72
2023/03/30 12:00:22;;;;;;;1.80;1.30;;;31.20;43.40;;;;;;5055384;28;20404;-72
2023/03/30 12:02:54;;;;;;;5.00;1.47;;;30.40;45.40;;;;;;5054072;28;20437;-73
2023/03/30 12:05:44;;;;;;;3.60;1.60;;;32.00;46.20;;;;;;5055136;28;20826;-73
2023/03/30 12:08:39;;;;;;;1.30;1.00;;;31.80;43.00;;;;;;5054628;28;20457;-72
2023/03/30 12:11:52;;;;;;;2.93;1.23;;;31.30;41.80;;;;;;5054916;28;20463;-72
2023/03/30 12:14:55;;;;;;;2.10;0.97;;;29.50;43.50;;;;;;5053079;28;20457;-73
2023/03/30 12:17:39;;;;;;;1.50;0.90;;;29.70;45.90;;;;;;5054559;28;20397;-71
2023/03/30 12:20:05;;;;;;;2.23;1.00;;;32.30;44.80;;;;;;5054071;28;20918;-73
2023/03/30 12:22:51;;;;;;;1.53;0.83;;;32.90;41.80;;;;;;5054407;28;20459;-72
2023/03/30 12:25:43;;;;;;;3.27;1.37;;;30.60;42.10;;;;;;5054336;28;20416;-72
2023/03/30 12:28:12;;;;;;;3.00;1.20;;;27.70;43.70;;;;;;5054035;28;20449;-72
2023/03/30 12:30:52;;;;;;;2.07;0.90;;;25.30;46.90;;;;;;5054573;28;20412;-73
2023/03/30 12:33:27;;;;;;;9.93;1.90;;;23.40;49.60;;;;;;5056164;28;20414;-72
2023/03/30 12:35:54;;;;;;;1.40;1.20;;;21.80;52.50;;;;;;5055937;28;20405;-73
2023/03/30 12:38:28;;;;;;;4.93;1.47;;;20.90;55.30;;;;;;5054815;28;20397;-72
2023/03/30 12:41:15;;;;;;;5.93;1.67;;;20.10;58.20;;;;;;5054776;28;20421;-73
2023/03/30 12:44:19;;;;;;;3.27;1.57;;;19.60;64.10;;;;;;5055687;28;20936;-72
2023/03/30 12:46:57;;;;;;;4.10;1.33;;;19.60;74.70;;;;;;5048302;28;20598;-72
2023/03/30 12:50:07;;;;;;;3.20;1.20;;;20.00;79.40;;;;;;5054098;28;20405;-72
2023/03/30 12:52:59;;;;;;;5.90;1.73;;;20.10;81.00;;;;;;5031802;28;20476;-73
2023/03/30 12:55:33;;;;;;;2.40;1.37;;;19.90;83.20;;;;;;5055275;28;20424;-73
2023/03/30 12:58:16;;;;;;;2.90;1.60;;;19.50;91.00;;;;;;5055578;28;20401;-72
2023/03/30 13:01:06;;;;;;;5.53;2.33;;;19.00;97.40;;;;;;5053732;28;20401;-72
2023/03/30 13:03:51;;;;;;;3.13;1.50;;;18.50;99.90;;;;;;5053670;28;20521;-71
2023/03/30 13:06:37;;;;;;;2.90;1.10;;;17.90;99.90;;;;;;5053570;28;20536;-71
2023/03/30 13:09:24;;;;;;;2.03;1.40;;;17.30;99.90;;;;;;5053438;28;20821;-71
2023/03/30 13:11:52;;;;;;;1.23;0.80;;;16.60;99.90;;;;;;5049590;28;20425;-71